sensor_id;sensor_type;location;lat;lon;timestamp;P1;durP1;ratioP1;P2;durP2;ratioP2
71814;SDS011;59659;41.520;23.794;2023-03-01T00:00:37;0.82;;;0.32;;
71814;SDS011;59659;41.520;23.794;2023-03-01T00:01:48;0.82;;;0.60;;
71814;SDS011;59659;41.520;23.794;2023-03-01T00:03:00;0.50;;;0.45;;
71814;SDS011;59659;41.520;23.794;2023-03-01T00:04:12;1.00;;;0.30;;
71814;SDS011;59659;41.520;23.794;2023-03-01T00:05:23;1.10;;;0.40;;
71814;SDS011;59659;41.520;23.794;2023-03-01T00:06:35;1.02;;;0.47;;
71814;SDS011;59659;41.520;23.794;2023-03-01T00:07:46;0.38;;;0.30;;
71814;SDS011;59659;41.520;23.794;2023-03-01T00:08:58;0.40;;;0.40;;
71814;SDS011;59659;41.520;23.794;2023-03-01T00:10:10;1.02;;;0.80;;
71814;SDS011;59659;41.520;23.794;2023-03-01T00:11:24;0.55;;;0.55;;
71814;SDS011;59659;41.520;23.794;2023-03-01T00:12:35;2.08;;;0.90;;
71814;SDS011;59659;41.520;23.794;2023-03-01T00:13:48;0.88;;;0.73;;
71814;SDS011;59659;41.520;23.794;2023-03-01T00:15:04;0.73;;;0.35;;
71814;SDS011;59659;41.520;23.794;2023-03-01T00:16:28;1.55;;;0.55;;
71814;SDS011;59659;41.520;23.794;2023-03-01T00:17:40;0.98;;;0.68;;
71814;SDS011;59659;41.520;23.794;2023-03-01T00:18:53;0.60;;;0.35;;
71814;SDS011;59659;41.520;23.794;2023-03-01T00:20:04;0.88;;;0.50;;
71814;SDS011;59659;41.520;23.794;2023-03-01T00:21:21;0.65;;;0.50;;
71814;SDS011;59659;41.520;23.794;2023-03-01T00:22:33;0.60;;;0.40;;
71814;SDS011;59659;41.520;23.794;2023-03-01T00:23:44;0.60;;;0.52;;
71814;SDS011;59659;41.520;23.794;2023-03-01T00:24:56;0.77;;;0.50;;
71814;SDS011;59659;41.520;23.794;2023-03-01T00:26:10;0.40;;;0.32;;
71814;SDS011;59659;41.520;23.794;2023-03-01T00:27:22;0.40;;;0.40;;
71814;SDS011;59659;41.520;23.794;2023-03-01T00:28:35;0.45;;;0.40;;
71814;SDS011;59659;41.520;23.794;2023-03-01T00:29:47;0.35;;;0.25;;
71814;SDS011;59659;41.520;23.794;2023-03-01T00:31:02;0.35;;;0.35;;
71814;SDS011;59659;41.520;23.794;2023-03-01T00:32:14;0.20;;;0.20;;
71814;SDS011;59659;41.520;23.794;2023-03-01T00:33:25;0.57;;;0.30;;
71814;SDS011;59659;41.520;23.794;2023-03-01T00:34:37;0.22;;;0.22;;
71814;SDS011;59659;41.520;23.794;2023-03-01T00:35:48;1.67;;;0.30;;
71814;SDS011;59659;41.520;23.794;2023-03-01T00:37:00;0.30;;;0.30;;
71814;SDS011;59659;41.520;23.794;2023-03-01T00:38:16;0.75;;;0.40;;
71814;SDS011;59659;41.520;23.794;2023-03-01T00:39:27;0.90;;;0.35;;
71814;SDS011;59659;41.520;23.794;2023-03-01T00:40:39;0.35;;;0.35;;
71814;SDS011;59659;41.520;23.794;2023-03-01T00:41:50;0.47;;;0.47;;
71814;SDS011;59659;41.520;23.794;2023-03-01T00:43:06;0.73;;;0.38;;
71814;SDS011;59659;41.520;23.794;2023-03-01T00:44:18;3.42;;;0.40;;
71814;SDS011;59659;41.520;23.794;2023-03-01T00:45:29;0.38;;;0.30;;
71814;SDS011;59659;41.520;23.794;2023-03-01T00:46:43;0.30;;;0.30;;
71814;SDS011;59659;41.520;23.794;2023-03-01T00:47:58;0.40;;;0.40;;
71814;SDS011;59659;41.520;23.794;2023-03-01T00:49:09;0.22;;;0.22;;
71814;SDS011;59659;41.520;23.794;2023-03-01T00:50:21;0.30;;;0.20;;
71814;SDS011;59659;41.520;23.794;2023-03-01T00:51:32;0.35;;;0.20;;
71814;SDS011;59659;41.520;23.794;2023-03-01T00:52:44;0.55;;;0.35;;
71814;SDS011;59659;41.520;23.794;2023-03-01T00:53:57;0.70;;;0.38;;
71814;SDS011;59659;41.520;23.794;2023-03-01T00:55:09;0.95;;;0.30;;
71814;SDS011;59659;41.520;23.794;2023-03-01T00:56:23;1.10;;;0.40;;
71814;SDS011;59659;41.520;23.794;2023-03-01T00:57:34;1.02;;;0.55;;
71814;SDS011;59659;41.520;23.794;2023-03-01T00:58:46;2.97;;;0.38;;
71814;SDS011;59659;41.520;23.794;2023-03-01T00:59:57;0.30;;;0.30;;
71814;SDS011;59659;41.520;23.794;2023-03-01T01:01:10;2.05;;;1.10;;
71814;SDS011;59659;41.520;23.794;2023-03-01T01:02:34;7.45;;;2.60;;
71814;SDS011;59659;41.520;23.794;2023-03-01T01:03:47;4.75;;;2.25;;
71814;SDS011;59659;41.520;23.794;2023-03-01T01:05:01;3.53;;;2.03;;
71814;SDS011;59659;41.520;23.794;2023-03-01T01:06:15;2.58;;;1.65;;
71814;SDS011;59659;41.520;23.794;2023-03-01T01:07:27;1.02;;;0.55;;
71814;SDS011;59659;41.520;23.794;2023-03-01T01:08:38;0.93;;;0.50;;
71814;SDS011;59659;41.520;23.794;2023-03-01T01:09:51;0.63;;;0.40;;
71814;SDS011;59659;41.520;23.794;2023-03-01T01:11:03;0.38;;;0.30;;
71814;SDS011;59659;41.520;23.794;2023-03-01T01:12:14;0.20;;;0.20;;
71814;SDS011;59659;41.520;23.794;2023-03-01T01:13:26;0.50;;;0.40;;
71814;SDS011;59659;41.520;23.794;2023-03-01T01:14:37;0.98;;;0.50;;
71814;SDS011;59659;41.520;23.794;2023-03-01T01:15:49;0.88;;;0.50;;
71814;SDS011;59659;41.520;23.794;2023-03-01T01:17:01;1.30;;;0.63;;
71814;SDS011;59659;41.520;23.794;2023-03-01T01:18:12;0.60;;;0.30;;
71814;SDS011;59659;41.520;23.794;2023-03-01T01:19:24;2.67;;;0.73;;
71814;SDS011;59659;41.520;23.794;2023-03-01T01:20:35;1.48;;;0.60;;
71814;SDS011;59659;41.520;23.794;2023-03-01T01:21:47;0.75;;;0.50;;
71814;SDS011;59659;41.520;23.794;2023-03-01T01:22:59;1.42;;;0.40;;
71814;SDS011;59659;41.520;23.794;2023-03-01T01:24:11;0.30;;;0.30;;
71814;SDS011;59659;41.520;23.794;2023-03-01T01:25:22;0.40;;;0.40;;
71814;SDS011;59659;41.520;23.794;2023-03-01T01:26:36;2.38;;;0.45;;
71814;SDS011;59659;41.520;23.794;2023-03-01T01:27:47;3.53;;;1.20;;
71814;SDS011;59659;41.520;23.794;2023-03-01T01:29:01;1.65;;;0.77;;
71814;SDS011;59659;41.520;23.794;2023-03-01T01:30:13;2.05;;;0.80;;
71814;SDS011;59659;41.520;23.794;2023-03-01T01:31:26;2.15;;;1.10;;
71814;SDS011;59659;41.520;23.794;2023-03-01T01:32:38;3.05;;;1.67;;
71814;SDS011;59659;41.520;23.794;2023-03-01T01:33:50;3.90;;;1.02;;
71814;SDS011;59659;41.520;23.794;2023-03-01T01:35:04;1.50;;;0.85;;
71814;SDS011;59659;41.520;23.794;2023-03-01T01:36:16;0.65;;;0.60;;
71814;SDS011;59659;41.520;23.794;2023-03-01T01:37:28;0.68;;;0.60;;
71814;SDS011;59659;41.520;23.794;2023-03-01T01:38:42;1.35;;;0.80;;
71814;SDS011;59659;41.520;23.794;2023-03-01T01:39:53;1.23;;;0.88;;
71814;SDS011;59659;41.520;23.794;2023-03-01T01:41:05;1.35;;;0.90;;
71814;SDS011;59659;41.520;23.794;2023-03-01T01:42:17;1.00;;;0.88;;
71814;SDS011;59659;41.520;23.794;2023-03-01T01:43:40;0.93;;;0.90;;
71814;SDS011;59659;41.520;23.794;2023-03-01T01:45:35;1.38;;;0.70;;
71814;SDS011;59659;41.520;23.794;2023-03-01T01:46:30;0.55;;;0.50;;
71814;SDS011;59659;41.520;23.794;2023-03-01T01:47:43;0.38;;;0.35;;
71814;SDS011;59659;41.520;23.794;2023-03-01T01:48:56;0.40;;;0.40;;
71814;SDS011;59659;41.520;23.794;2023-03-01T01:50:09;0.40;;;0.40;;
71814;SDS011;59659;41.520;23.794;2023-03-01T01:51:33;0.30;;;0.30;;
71814;SDS011;59659;41.520;23.794;2023-03-01T01:52:50;0.70;;;0.45;;
71814;SDS011;59659;41.520;23.794;2023-03-01T01:54:18;0.50;;;0.35;;
71814;SDS011;59659;41.520;23.794;2023-03-01T01:55:34;0.40;;;0.40;;
71814;SDS011;59659;41.520;23.794;2023-03-01T01:56:48;0.93;;;0.45;;
71814;SDS011;59659;41.520;23.794;2023-03-01T01:58:02;0.77;;;0.40;;
71814;SDS011;59659;41.520;23.794;2023-03-01T01:59:15;0.65;;;0.47;;
71814;SDS011;59659;41.520;23.794;2023-03-01T02:00:27;1.08;;;0.60;;
71814;SDS011;59659;41.520;23.794;2023-03-01T02:01:39;0.50;;;0.40;;
71814;SDS011;59659;41.520;23.794;2023-03-01T02:02:55;3.53;;;0.50;;
71814;SDS011;59659;41.520;23.794;2023-03-01T02:04:07;1.80;;;0.60;;
71814;SDS011;59659;41.520;23.794;2023-03-01T02:05:20;0.80;;;0.55;;
71814;SDS011;59659;41.520;23.794;2023-03-01T02:06:39;1.25;;;0.80;;
71814;SDS011;59659;41.520;23.794;2023-03-01T02:07:52;2.13;;;0.85;;
71814;SDS011;59659;41.520;23.794;2023-03-01T02:09:08;1.27;;;0.52;;
71814;SDS011;59659;41.520;23.794;2023-03-01T02:10:22;0.60;;;0.60;;
71814;SDS011;59659;41.520;23.794;2023-03-01T02:11:33;1.38;;;0.60;;
71814;SDS011;59659;41.520;23.794;2023-03-01T02:12:45;3.78;;;1.15;;
71814;SDS011;59659;41.520;23.794;2023-03-01T02:13:57;1.23;;;0.73;;
71814;SDS011;59659;41.520;23.794;2023-03-01T02:15:08;1.60;;;0.70;;
71814;SDS011;59659;41.520;23.794;2023-03-01T02:16:20;1.95;;;1.05;;
71814;SDS011;59659;41.520;23.794;2023-03-01T02:17:31;1.65;;;0.70;;
71814;SDS011;59659;41.520;23.794;2023-03-01T02:18:43;0.82;;;0.77;;
71814;SDS011;59659;41.520;23.794;2023-03-01T02:21:11;1.80;;;0.70;;
71814;SDS011;59659;41.520;23.794;2023-03-01T02:22:30;1.17;;;0.50;;
71814;SDS011;59659;41.520;23.794;2023-03-01T02:23:44;0.80;;;0.52;;
71814;SDS011;59659;41.520;23.794;2023-03-01T02:26:29;2.40;;;0.70;;
71814;SDS011;59659;41.520;23.794;2023-03-01T02:28:57;0.95;;;0.73;;
71814;SDS011;59659;41.520;23.794;2023-03-01T02:30:13;0.47;;;0.35;;
71814;SDS011;59659;41.520;23.794;2023-03-01T02:31:25;1.90;;;0.80;;
71814;SDS011;59659;41.520;23.794;2023-03-01T02:32:55;0.55;;;0.55;;
71814;SDS011;59659;41.520;23.794;2023-03-01T02:34:18;0.85;;;0.50;;
71814;SDS011;59659;41.520;23.794;2023-03-01T02:35:32;0.65;;;0.40;;
71814;SDS011;59659;41.520;23.794;2023-03-01T02:36:53;1.35;;;0.90;;
71814;SDS011;59659;41.520;23.794;2023-03-01T02:38:08;1.85;;;0.65;;
71814;SDS011;59659;41.520;23.794;2023-03-01T02:39:22;1.42;;;0.73;;
71814;SDS011;59659;41.520;23.794;2023-03-01T02:40:34;0.82;;;0.63;;
71814;SDS011;59659;41.520;23.794;2023-03-01T02:41:49;1.02;;;0.93;;
71814;SDS011;59659;41.520;23.794;2023-03-01T02:43:01;1.00;;;0.57;;
71814;SDS011;59659;41.520;23.794;2023-03-01T02:44:15;0.98;;;0.70;;
71814;SDS011;59659;41.520;23.794;2023-03-01T02:45:27;1.00;;;0.80;;
71814;SDS011;59659;41.520;23.794;2023-03-01T02:46:44;2.45;;;1.73;;
71814;SDS011;59659;41.520;23.794;2023-03-01T02:47:57;3.78;;;1.83;;
71814;SDS011;59659;41.520;23.794;2023-03-01T02:49:18;3.05;;;2.13;;
71814;SDS011;59659;41.520;23.794;2023-03-01T02:51:17;2.53;;;1.88;;
71814;SDS011;59659;41.520;23.794;2023-03-01T02:56:21;2.63;;;2.00;;
71814;SDS011;59659;41.520;23.794;2023-03-01T02:57:33;1.83;;;0.93;;
71814;SDS011;59659;41.520;23.794;2023-03-01T02:58:46;1.63;;;1.05;;
71814;SDS011;59659;41.520;23.794;2023-03-01T03:00:05;0.73;;;0.60;;
71814;SDS011;59659;41.520;23.794;2023-03-01T03:01:18;0.75;;;0.75;;
71814;SDS011;59659;41.520;23.794;2023-03-01T03:02:33;1.35;;;0.98;;
71814;SDS011;59659;41.520;23.794;2023-03-01T03:03:47;0.43;;;0.43;;
71814;SDS011;59659;41.520;23.794;2023-03-01T03:04:59;0.45;;;0.40;;
71814;SDS011;59659;41.520;23.794;2023-03-01T03:06:10;0.85;;;0.60;;
71814;SDS011;59659;41.520;23.794;2023-03-01T03:07:22;1.67;;;0.60;;
71814;SDS011;59659;41.520;23.794;2023-03-01T03:08:33;0.40;;;0.40;;
71814;SDS011;59659;41.520;23.794;2023-03-01T03:09:45;1.88;;;0.77;;
71814;SDS011;59659;41.520;23.794;2023-03-01T03:10:56;1.25;;;0.90;;
71814;SDS011;59659;41.520;23.794;2023-03-01T03:12:10;2.28;;;1.08;;
71814;SDS011;59659;41.520;23.794;2023-03-01T03:13:22;1.25;;;0.90;;
71814;SDS011;59659;41.520;23.794;2023-03-01T03:14:33;1.60;;;0.90;;
71814;SDS011;59659;41.520;23.794;2023-03-01T03:15:46;1.92;;;1.10;;
71814;SDS011;59659;41.520;23.794;2023-03-01T03:16:57;2.20;;;1.23;;
71814;SDS011;59659;41.520;23.794;2023-03-01T03:18:10;1.98;;;1.45;;
71814;SDS011;59659;41.520;23.794;2023-03-01T03:19:22;2.03;;;1.23;;
71814;SDS011;59659;41.520;23.794;2023-03-01T03:20:33;0.70;;;0.70;;
71814;SDS011;59659;41.520;23.794;2023-03-01T03:21:45;1.25;;;0.60;;
71814;SDS011;59659;41.520;23.794;2023-03-01T03:22:57;1.00;;;0.60;;
71814;SDS011;59659;41.520;23.794;2023-03-01T03:24:11;1.58;;;0.50;;
71814;SDS011;59659;41.520;23.794;2023-03-01T03:25:23;1.23;;;0.80;;
71814;SDS011;59659;41.520;23.794;2023-03-01T03:26:34;1.25;;;0.60;;
71814;SDS011;59659;41.520;23.794;2023-03-01T03:27:48;0.45;;;0.43;;
71814;SDS011;59659;41.520;23.794;2023-03-01T03:29:00;0.57;;;0.57;;
71814;SDS011;59659;41.520;23.794;2023-03-01T03:30:13;1.67;;;0.60;;
71814;SDS011;59659;41.520;23.794;2023-03-01T03:31:25;0.57;;;0.55;;
71814;SDS011;59659;41.520;23.794;2023-03-01T03:32:36;0.95;;;0.68;;
71814;SDS011;59659;41.520;23.794;2023-03-01T03:33:50;2.67;;;1.13;;
71814;SDS011;59659;41.520;23.794;2023-03-01T03:35:03;14.18;;;6.75;;
71814;SDS011;59659;41.520;23.794;2023-03-01T03:36:21;23.35;;;10.02;;
71814;SDS011;59659;41.520;23.794;2023-03-01T03:37:36;17.00;;;8.40;;
71814;SDS011;59659;41.520;23.794;2023-03-01T03:39:07;5.50;;;2.60;;
71814;SDS011;59659;41.520;23.794;2023-03-01T03:40:18;8.77;;;1.77;;
71814;SDS011;59659;41.520;23.794;2023-03-01T03:41:30;2.80;;;1.40;;
71814;SDS011;59659;41.520;23.794;2023-03-01T03:42:41;2.55;;;1.02;;
71814;SDS011;59659;41.520;23.794;2023-03-01T03:43:53;0.70;;;0.60;;
71814;SDS011;59659;41.520;23.794;2023-03-01T03:45:04;0.82;;;0.55;;
71814;SDS011;59659;41.520;23.794;2023-03-01T03:46:16;1.35;;;0.77;;
71814;SDS011;59659;41.520;23.794;2023-03-01T03:47:28;0.73;;;0.60;;
71814;SDS011;59659;41.520;23.794;2023-03-01T03:48:40;1.35;;;0.65;;
71814;SDS011;59659;41.520;23.794;2023-03-01T03:49:52;0.68;;;0.65;;
71814;SDS011;59659;41.520;23.794;2023-03-01T03:51:04;0.45;;;0.45;;
71814;SDS011;59659;41.520;23.794;2023-03-01T03:52:18;0.80;;;0.60;;
71814;SDS011;59659;41.520;23.794;2023-03-01T03:53:30;0.88;;;0.80;;
71814;SDS011;59659;41.520;23.794;2023-03-01T03:54:41;1.20;;;1.10;;
71814;SDS011;59659;41.520;23.794;2023-03-01T03:55:53;1.77;;;1.13;;
71814;SDS011;59659;41.520;23.794;2023-03-01T03:57:04;1.50;;;1.20;;
71814;SDS011;59659;41.520;23.794;2023-03-01T03:58:16;2.67;;;1.85;;
71814;SDS011;59659;41.520;23.794;2023-03-01T03:59:30;2.45;;;1.40;;
71814;SDS011;59659;41.520;23.794;2023-03-01T04:00:43;1.77;;;1.02;;
71814;SDS011;59659;41.520;23.794;2023-03-01T04:01:54;1.85;;;1.00;;
71814;SDS011;59659;41.520;23.794;2023-03-01T04:03:07;1.00;;;0.90;;
71814;SDS011;59659;41.520;23.794;2023-03-01T04:04:19;0.60;;;0.60;;
71814;SDS011;59659;41.520;23.794;2023-03-01T04:05:30;1.73;;;0.90;;
71814;SDS011;59659;41.520;23.794;2023-03-01T04:06:42;1.02;;;0.65;;
71814;SDS011;59659;41.520;23.794;2023-03-01T04:07:53;0.73;;;0.70;;
71814;SDS011;59659;41.520;23.794;2023-03-01T04:09:15;1.85;;;0.98;;
71814;SDS011;59659;41.520;23.794;2023-03-01T04:10:30;1.17;;;1.00;;
71814;SDS011;59659;41.520;23.794;2023-03-01T04:11:44;1.40;;;1.08;;
71814;SDS011;59659;41.520;23.794;2023-03-01T04:12:55;1.50;;;1.10;;
71814;SDS011;59659;41.520;23.794;2023-03-01T04:14:08;0.80;;;0.80;;
71814;SDS011;59659;41.520;23.794;2023-03-01T04:15:19;0.80;;;0.77;;
71814;SDS011;59659;41.520;23.794;2023-03-01T04:16:30;0.60;;;0.60;;
71814;SDS011;59659;41.520;23.794;2023-03-01T04:17:43;1.25;;;0.70;;
71814;SDS011;59659;41.520;23.794;2023-03-01T04:18:55;0.60;;;0.60;;
71814;SDS011;59659;41.520;23.794;2023-03-01T04:20:08;0.60;;;0.60;;
71814;SDS011;59659;41.520;23.794;2023-03-01T04:21:20;0.40;;;0.40;;
71814;SDS011;59659;41.520;23.794;2023-03-01T04:22:32;1.13;;;0.82;;
71814;SDS011;59659;41.520;23.794;2023-03-01T04:23:44;0.90;;;0.68;;
71814;SDS011;59659;41.520;23.794;2023-03-01T04:24:56;0.45;;;0.45;;
71814;SDS011;59659;41.520;23.794;2023-03-01T04:26:07;1.42;;;0.50;;
71814;SDS011;59659;41.520;23.794;2023-03-01T04:27:19;0.40;;;0.40;;
71814;SDS011;59659;41.520;23.794;2023-03-01T04:28:31;0.60;;;0.60;;
71814;SDS011;59659;41.520;23.794;2023-03-01T04:29:47;0.25;;;0.25;;
71814;SDS011;59659;41.520;23.794;2023-03-01T04:30:58;2.92;;;0.45;;
71814;SDS011;59659;41.520;23.794;2023-03-01T04:32:10;0.30;;;0.30;;
71814;SDS011;59659;41.520;23.794;2023-03-01T04:33:21;0.38;;;0.30;;
71814;SDS011;59659;41.520;23.794;2023-03-01T04:34:33;1.13;;;0.60;;
71814;SDS011;59659;41.520;23.794;2023-03-01T04:35:45;0.30;;;0.30;;
71814;SDS011;59659;41.520;23.794;2023-03-01T04:37:00;0.40;;;0.40;;
71814;SDS011;59659;41.520;23.794;2023-03-01T04:38:14;0.40;;;0.40;;
71814;SDS011;59659;41.520;23.794;2023-03-01T04:39:28;1.20;;;0.88;;
71814;SDS011;59659;41.520;23.794;2023-03-01T04:40:40;0.45;;;0.43;;
71814;SDS011;59659;41.520;23.794;2023-03-01T04:41:53;0.47;;;0.47;;
71814;SDS011;59659;41.520;23.794;2023-03-01T04:43:05;0.70;;;0.50;;
71814;SDS011;59659;41.520;23.794;2023-03-01T04:44:19;1.65;;;0.98;;
71814;SDS011;59659;41.520;23.794;2023-03-01T04:45:31;1.83;;;1.25;;
71814;SDS011;59659;41.520;23.794;2023-03-01T04:46:43;1.95;;;1.45;;
71814;SDS011;59659;41.520;23.794;2023-03-01T04:47:54;2.30;;;1.48;;
71814;SDS011;59659;41.520;23.794;2023-03-01T04:49:06;4.78;;;2.45;;
71814;SDS011;59659;41.520;23.794;2023-03-01T04:50:17;3.80;;;2.25;;
71814;SDS011;59659;41.520;23.794;2023-03-01T04:51:31;6.75;;;3.17;;
71814;SDS011;59659;41.520;23.794;2023-03-01T04:52:49;5.13;;;3.35;;
71814;SDS011;59659;41.520;23.794;2023-03-01T04:54:00;4.75;;;2.88;;
71814;SDS011;59659;41.520;23.794;2023-03-01T04:55:14;2.97;;;1.52;;
71814;SDS011;59659;41.520;23.794;2023-03-01T04:56:26;2.17;;;1.00;;
71814;SDS011;59659;41.520;23.794;2023-03-01T04:57:40;1.55;;;0.77;;
71814;SDS011;59659;41.520;23.794;2023-03-01T04:58:53;7.28;;;3.53;;
71814;SDS011;59659;41.520;23.794;2023-03-01T05:00:05;10.50;;;4.82;;
71814;SDS011;59659;41.520;23.794;2023-03-01T05:01:31;4.03;;;2.33;;
71814;SDS011;59659;41.520;23.794;2023-03-01T05:02:42;4.45;;;2.78;;
71814;SDS011;59659;41.520;23.794;2023-03-01T05:03:55;4.93;;;3.05;;
71814;SDS011;59659;41.520;23.794;2023-03-01T05:05:06;3.10;;;2.47;;
71814;SDS011;59659;41.520;23.794;2023-03-01T05:06:20;2.78;;;1.90;;
71814;SDS011;59659;41.520;23.794;2023-03-01T05:07:31;2.83;;;1.70;;
71814;SDS011;59659;41.520;23.794;2023-03-01T05:08:43;3.25;;;1.65;;
71814;SDS011;59659;41.520;23.794;2023-03-01T05:09:56;8.00;;;4.05;;
71814;SDS011;59659;41.520;23.794;2023-03-01T05:11:07;7.38;;;4.38;;
71814;SDS011;59659;41.520;23.794;2023-03-01T05:12:22;23.85;;;12.32;;
71814;SDS011;59659;41.520;23.794;2023-03-01T05:13:33;24.00;;;12.55;;
71814;SDS011;59659;41.520;23.794;2023-03-01T05:14:45;25.40;;;12.70;;
71814;SDS011;59659;41.520;23.794;2023-03-01T05:15:57;23.75;;;12.27;;
71814;SDS011;59659;41.520;23.794;2023-03-01T05:17:09;17.25;;;9.43;;
71814;SDS011;59659;41.520;23.794;2023-03-01T05:18:23;25.73;;;12.57;;
71814;SDS011;59659;41.520;23.794;2023-03-01T05:19:37;29.58;;;14.65;;
71814;SDS011;59659;41.520;23.794;2023-03-01T05:20:49;36.13;;;15.93;;
71814;SDS011;59659;41.520;23.794;2023-03-01T05:22:04;38.97;;;18.77;;
71814;SDS011;59659;41.520;23.794;2023-03-01T05:23:17;34.90;;;13.98;;
71814;SDS011;59659;41.520;23.794;2023-03-01T05:24:30;27.77;;;15.38;;
71814;SDS011;59659;41.520;23.794;2023-03-01T05:25:42;23.30;;;11.82;;
71814;SDS011;59659;41.520;23.794;2023-03-01T05:26:53;25.30;;;11.27;;
71814;SDS011;59659;41.520;23.794;2023-03-01T05:28:06;27.08;;;12.25;;
71814;SDS011;59659;41.520;23.794;2023-03-01T05:29:19;43.65;;;17.98;;
71814;SDS011;59659;41.520;23.794;2023-03-01T05:30:38;37.67;;;19.42;;
71814;SDS011;59659;41.520;23.794;2023-03-01T05:31:57;32.17;;;17.00;;
71814;SDS011;59659;41.520;23.794;2023-03-01T05:33:11;30.27;;;13.98;;
71814;SDS011;59659;41.520;23.794;2023-03-01T05:34:26;32.25;;;16.65;;
71814;SDS011;59659;41.520;23.794;2023-03-01T05:35:38;37.75;;;15.68;;
71814;SDS011;59659;41.520;23.794;2023-03-01T05:36:51;41.22;;;17.83;;
71814;SDS011;59659;41.520;23.794;2023-03-01T05:38:04;25.55;;;12.27;;
71814;SDS011;59659;41.520;23.794;2023-03-01T05:39:15;21.77;;;9.13;;
71814;SDS011;59659;41.520;23.794;2023-03-01T05:40:32;15.18;;;7.85;;
71814;SDS011;59659;41.520;23.794;2023-03-01T05:41:44;45.83;;;20.23;;
71814;SDS011;59659;41.520;23.794;2023-03-01T05:42:56;32.53;;;16.52;;
71814;SDS011;59659;41.520;23.794;2023-03-01T05:44:09;35.65;;;15.82;;
71814;SDS011;59659;41.520;23.794;2023-03-01T05:45:21;33.45;;;13.85;;
71814;SDS011;59659;41.520;23.794;2023-03-01T05:46:32;27.85;;;13.27;;
71814;SDS011;59659;41.520;23.794;2023-03-01T05:47:45;26.90;;;12.20;;
71814;SDS011;59659;41.520;23.794;2023-03-01T05:48:57;21.55;;;11.57;;
71814;SDS011;59659;41.520;23.794;2023-03-01T05:50:33;19.38;;;11.18;;
71814;SDS011;59659;41.520;23.794;2023-03-01T05:51:47;17.77;;;9.98;;
71814;SDS011;59659;41.520;23.794;2023-03-01T05:54:13;32.88;;;16.98;;
71814;SDS011;59659;41.520;23.794;2023-03-01T05:55:24;44.47;;;19.45;;
71814;SDS011;59659;41.520;23.794;2023-03-01T05:56:39;47.42;;;20.95;;
71814;SDS011;59659;41.520;23.794;2023-03-01T05:57:51;50.83;;;22.70;;
71814;SDS011;59659;41.520;23.794;2023-03-01T05:59:02;48.00;;;20.00;;
71814;SDS011;59659;41.520;23.794;2023-03-01T06:00:15;61.10;;;27.23;;
71814;SDS011;59659;41.520;23.794;2023-03-01T06:01:27;62.75;;;25.73;;
71814;SDS011;59659;41.520;23.794;2023-03-01T06:02:39;57.70;;;23.00;;
71814;SDS011;59659;41.520;23.794;2023-03-01T06:03:51;56.00;;;23.33;;
71814;SDS011;59659;41.520;23.794;2023-03-01T06:05:03;57.63;;;23.75;;
71814;SDS011;59659;41.520;23.794;2023-03-01T06:06:15;55.95;;;25.45;;
71814;SDS011;59659;41.520;23.794;2023-03-01T06:07:26;46.08;;;22.88;;
71814;SDS011;59659;41.520;23.794;2023-03-01T06:08:40;45.88;;;21.13;;
71814;SDS011;59659;41.520;23.794;2023-03-01T06:09:52;45.25;;;22.45;;
71814;SDS011;59659;41.520;23.794;2023-03-01T06:11:03;40.42;;;19.20;;
71814;SDS011;59659;41.520;23.794;2023-03-01T06:12:16;39.30;;;18.17;;
71814;SDS011;59659;41.520;23.794;2023-03-01T06:13:28;33.85;;;17.50;;
71814;SDS011;59659;41.520;23.794;2023-03-01T06:14:40;32.58;;;14.52;;
71814;SDS011;59659;41.520;23.794;2023-03-01T06:15:54;37.53;;;16.65;;
71814;SDS011;59659;41.520;23.794;2023-03-01T06:17:09;35.20;;;17.23;;
71814;SDS011;59659;41.520;23.794;2023-03-01T06:18:21;29.33;;;16.35;;
71814;SDS011;59659;41.520;23.794;2023-03-01T06:19:32;38.80;;;17.63;;
71814;SDS011;59659;41.520;23.794;2023-03-01T06:20:44;40.53;;;18.33;;
71814;SDS011;59659;41.520;23.794;2023-03-01T06:21:59;32.17;;;17.05;;
71814;SDS011;59659;41.520;23.794;2023-03-01T06:23:11;44.45;;;19.25;;
71814;SDS011;59659;41.520;23.794;2023-03-01T06:24:24;49.35;;;20.42;;
71814;SDS011;59659;41.520;23.794;2023-03-01T06:25:36;43.60;;;18.20;;
71814;SDS011;59659;41.520;23.794;2023-03-01T06:26:48;34.60;;;13.32;;
71814;SDS011;59659;41.520;23.794;2023-03-01T06:28:04;29.35;;;13.27;;
71814;SDS011;59659;41.520;23.794;2023-03-01T06:29:15;30.95;;;14.18;;
71814;SDS011;59659;41.520;23.794;2023-03-01T06:30:31;22.73;;;8.85;;
71814;SDS011;59659;41.520;23.794;2023-03-01T06:31:43;12.40;;;5.13;;
71814;SDS011;59659;41.520;23.794;2023-03-01T06:32:55;11.70;;;5.00;;
71814;SDS011;59659;41.520;23.794;2023-03-01T06:34:11;18.90;;;8.07;;
71814;SDS011;59659;41.520;23.794;2023-03-01T06:35:24;13.32;;;6.45;;
71814;SDS011;59659;41.520;23.794;2023-03-01T06:36:41;12.77;;;6.65;;
71814;SDS011;59659;41.520;23.794;2023-03-01T06:37:52;13.13;;;7.57;;
71814;SDS011;59659;41.520;23.794;2023-03-01T06:39:03;12.43;;;5.72;;
71814;SDS011;59659;41.520;23.794;2023-03-01T06:40:16;14.35;;;5.88;;
71814;SDS011;59659;41.520;23.794;2023-03-01T06:41:28;10.48;;;6.25;;
71814;SDS011;59659;41.520;23.794;2023-03-01T06:42:40;10.82;;;5.45;;
71814;SDS011;59659;41.520;23.794;2023-03-01T06:43:55;21.85;;;10.88;;
71814;SDS011;59659;41.520;23.794;2023-03-01T06:45:07;32.28;;;12.02;;
71814;SDS011;59659;41.520;23.794;2023-03-01T06:46:18;34.40;;;13.25;;
71814;SDS011;59659;41.520;23.794;2023-03-01T06:47:30;22.20;;;11.00;;
71814;SDS011;59659;41.520;23.794;2023-03-01T06:48:42;27.15;;;11.70;;
71814;SDS011;59659;41.520;23.794;2023-03-01T06:49:53;15.73;;;8.60;;
71814;SDS011;59659;41.520;23.794;2023-03-01T06:51:07;12.45;;;6.32;;
71814;SDS011;59659;41.520;23.794;2023-03-01T06:52:18;11.23;;;4.85;;
71814;SDS011;59659;41.520;23.794;2023-03-01T06:53:30;15.73;;;8.57;;
71814;SDS011;59659;41.520;23.794;2023-03-01T06:54:41;10.27;;;6.50;;
71814;SDS011;59659;41.520;23.794;2023-03-01T06:55:54;14.88;;;7.53;;
71814;SDS011;59659;41.520;23.794;2023-03-01T06:57:05;15.57;;;7.10;;
71814;SDS011;59659;41.520;23.794;2023-03-01T06:58:17;12.02;;;5.90;;
71814;SDS011;59659;41.520;23.794;2023-03-01T06:59:28;10.32;;;5.28;;
71814;SDS011;59659;41.520;23.794;2023-03-01T07:00:40;14.90;;;7.00;;
71814;SDS011;59659;41.520;23.794;2023-03-01T07:01:52;12.27;;;7.57;;
71814;SDS011;59659;41.520;23.794;2023-03-01T07:03:03;15.77;;;7.38;;
71814;SDS011;59659;41.520;23.794;2023-03-01T07:04:15;14.48;;;8.13;;
71814;SDS011;59659;41.520;23.794;2023-03-01T07:05:26;15.23;;;7.95;;
71814;SDS011;59659;41.520;23.794;2023-03-01T07:06:41;20.40;;;11.23;;
71814;SDS011;59659;41.520;23.794;2023-03-01T07:07:55;17.38;;;9.88;;
71814;SDS011;59659;41.520;23.794;2023-03-01T07:09:07;16.38;;;8.45;;
71814;SDS011;59659;41.520;23.794;2023-03-01T07:10:18;12.02;;;7.30;;
71814;SDS011;59659;41.520;23.794;2023-03-01T07:11:30;11.73;;;6.07;;
71814;SDS011;59659;41.520;23.794;2023-03-01T07:12:41;8.95;;;5.35;;
71814;SDS011;59659;41.520;23.794;2023-03-01T07:13:53;7.85;;;5.10;;
71814;SDS011;59659;41.520;23.794;2023-03-01T07:15:05;14.23;;;6.38;;
71814;SDS011;59659;41.520;23.794;2023-03-01T07:16:17;10.85;;;5.95;;
71814;SDS011;59659;41.520;23.794;2023-03-01T07:17:29;11.68;;;6.53;;
71814;SDS011;59659;41.520;23.794;2023-03-01T07:18:40;7.93;;;3.75;;
71814;SDS011;59659;41.520;23.794;2023-03-01T07:19:52;6.03;;;3.05;;
71814;SDS011;59659;41.520;23.794;2023-03-01T07:21:04;5.68;;;2.80;;